Terminal Aerodrome Forecast
Issued by NWS

Home | Current Version | Previous Version | Graphics & Text | Print | Product List | Glossary On
Versions: 1 2 3 4 5 6 7 8 9 10 11 12 13 14 15 16
000
FTUS43 KBIS 242328
TAFMOT
TAF
KMOT 242328Z 2500/2524 26023G28KT P6SM VCSH SCT050 BKN060
     FM250300 30016G24KT P6SM VCSH OVC020
     FM251000 30009KT P6SM BKN020
     FM251400 30009KT P6SM BKN035
     FM251800 30010G16KT P6SM SCT080=

USA.gov is the U.S. government's official web portal to all federal, state and local government web resources and services.